Time;durP1;ratioP1;P1;durP2;ratioP2;P2;SDS_P1;SDS_P2;PMS_P1;PMS_P2;Temp;Humidity;BMP_temperature;BMP_pressure;BME280_temperature;BME280_humidity;BME280_pressure;Samples;Min_cycle;Max_cycle;Signal;HPM_P1;HPM_P2
2022/12/30 00:00:58;;;;;;;;;;;;;;;1.72;84.24;100742.84;5017857;28;19920;-89
2022/12/30 00:03:23;;;;;;;;;;;;;;;2.07;84.65;100750.19;5016548;28;19909;-88
2022/12/30 00:05:49;;;;;;;;;;;;;;;2.36;84.08;100750.34;5015859;28;20319;-88
2022/12/30 00:10:58;;;;;;;;;;;;;;;2.79;81.36;100762.25;5015301;28;19975;-87
2022/12/30 00:33:19;;;;;;;;;;;;;;;2.62;78.11;100746.91;5014919;28;19968;-86
2022/12/30 00:35:44;;;;;;;;;;;;;;;2.65;77.43;100754.84;5014556;28;19914;-86
2022/12/30 00:38:10;;;;;;;;;;;;;;;2.60;77.56;100746.00;5014580;28;19987;-86
2022/12/30 00:40:35;;;;;;;;;;;;;;;2.69;77.29;100751.50;5014459;28;20008;-86
2022/12/30 00:43:10;;;;;;;;;;;;;;;2.65;77.47;100752.22;5014962;28;19913;-86
2022/12/30 00:45:40;;;;;;;;;;;;;;;2.67;76.82;100749.69;5014892;28;20371;-87
2022/12/30 00:56:17;;;;;;;;;;;;;;;2.57;76.27;100752.81;5014013;28;20433;-86
2022/12/30 00:58:43;;;;;;;;;;;;;;;2.54;76.03;100761.41;5014772;28;19996;-86
2022/12/30 01:01:08;;;;;;;;;;;;;;;2.59;76.18;100766.78;5014492;28;19983;-85
2022/12/30 01:03:33;;;;;;;;;;;;;;;2.48;76.61;100759.47;5014076;28;19913;-86
2022/12/30 01:06:03;;;;;;;;;;;;;;;2.38;76.82;100757.41;5014417;28;19913;-86
2022/12/30 01:08:28;;;;;;;;;;;;;;;2.33;77.23;100764.13;5014292;28;19971;-85
2022/12/30 01:13:57;;;;;;;;;;;;;;;2.19;78.31;100750.63;5014184;28;20063;-85
2022/12/30 01:19:25;;;;;;;;;;;;;;;2.34;77.78;100750.28;5014162;28;20327;-85
2022/12/30 01:21:50;;;;;;;;;;;;;;;2.40;77.84;100747.91;5014045;28;19910;-85
2022/12/30 01:24:15;;;;;;;;;;;;;;;2.33;76.94;100754.63;5014204;28;19996;-85
2022/12/30 01:29:44;;;;;;;;;;;;;;;2.33;77.45;100748.50;5014135;28;20391;-86
2022/12/30 01:32:13;;;;;;;;;;;;;;;2.47;77.62;100743.78;5013687;28;19945;-85
2022/12/30 01:34:40;;;;;;;;;;;;;;;2.47;76.99;100741.19;5012667;28;19914;-85
2022/12/30 01:37:05;;;;;;;;;;;;;;;2.40;77.35;100741.81;5013362;28;19916;-85
2022/12/30 01:39:31;;;;;;;;;;;;;;;2.30;77.38;100741.50;5013300;28;19917;-86
2022/12/30 01:41:57;;;;;;;;;;;;;;;2.29;77.49;100737.09;5013891;28;19914;-86
2022/12/30 01:44:42;;;;;;;;;;;;;;;2.28;76.74;100743.13;5011690;28;20354;-87
2022/12/30 01:47:09;;;;;;;;;;;;;;;2.31;76.90;100742.38;5012456;28;20349;-86
2022/12/30 01:49:38;;;;;;;;;;;;;;;2.28;75.12;100739.66;5013162;28;19948;-87
2022/12/30 01:52:03;;;;;;;;;;;;;;;1.98;75.53;100732.53;5013065;28;19925;-87
2022/12/30 01:54:29;;;;;;;;;;;;;;;1.77;76.22;100725.69;5013648;28;19913;-86
2022/12/30 01:59:58;;;;;;;;;;;;;;;1.88;76.58;100720.88;5011715;28;20414;-87
2022/12/30 02:05:28;;;;;;;;;;;;;;;2.00;76.72;100717.84;5013631;28;19967;-86
2022/12/30 02:08:01;;;;;;;;;;;;;;;1.86;77.56;100719.94;5013520;28;19960;-86
2022/12/30 02:10:26;;;;;;;;;;;;;;;1.93;76.78;100713.25;5013188;28;19968;-86
2022/12/30 02:12:52;;;;;;;;;;;;;;;1.72;77.97;100715.97;5013362;28;20323;-86
2022/12/30 02:15:17;;;;;;;;;;;;;;;1.74;78.00;100717.78;5011450;28;19913;-86
2022/12/30 02:17:51;;;;;;;;;;;;;;;1.90;78.30;100711.44;5012935;28;19913;-86
2022/12/30 02:20:17;;;;;;;;;;;;;;;1.78;77.65;100705.78;5013309;28;20021;-86
2022/12/30 02:22:42;;;;;;;;;;;;;;;1.94;77.29;100708.09;5012974;28;20433;-86
2022/12/30 02:25:26;;;;;;;;;;;;;;;1.81;77.66;100708.50;5013222;28;19909;-86
2022/12/30 02:28:06;;;;;;;;;;;;;;;1.76;77.48;100699.63;5013157;28;19914;-86
2022/12/30 02:30:50;;;;;;;;;;;;;;;1.77;78.39;100698.78;5011773;28;20494;-86
2022/12/30 02:33:24;;;;;;;;;;;;;;;1.57;78.49;100700.66;5013290;28;19913;-87
2022/12/30 02:36:07;;;;;;;;;;;;;;;1.73;79.17;100703.00;5013207;28;20450;-86
2022/12/30 02:38:36;;;;;;;;;;;;;;;1.76;79.19;100699.63;5012875;28;19960;-86
2022/12/30 02:46:46;;;;;;;;;;;;;;;1.90;78.79;100710.53;5012688;28;20363;-86
2022/12/30 02:49:12;;;;;;;;;;;;;;;2.05;78.57;100713.69;5013193;28;19921;-86
2022/12/30 02:54:24;;;;;;;;;;;;;;;1.99;77.69;100710.84;5012618;28;20407;-86
2022/12/30 03:09:09;;;;;;;;;;;;;;;1.82;77.62;100715.44;5012911;28;19917;-86
2022/12/30 03:11:53;;;;;;;;;;;;;;;1.59;76.07;100718.09;5012282;28;19913;-85
2022/12/30 03:14:22;;;;;;;;;;;;;;;1.35;74.73;100728.44;5012682;28;19913;-85
2022/12/30 03:16:50;;;;;;;;;;;;;;;1.28;75.31;100720.34;5012322;28;19913;-85
2022/12/30 03:19:17;;;;;;;;;;;;;;;1.20;75.78;100730.44;5012292;28;19913;-86
2022/12/30 03:21:44;;;;;;;;;;;;;;;1.18;75.87;100732.09;5012030;28;19914;-86
2022/12/30 03:27:04;;;;;;;;;;;;;;;1.25;76.30;100727.22;5012712;28;20025;-85
2022/12/30 03:29:32;;;;;;;;;;;;;;;1.00;76.90;100742.66;5012549;28;19913;-86
2022/12/30 03:31:58;;;;;;;;;;;;;;;1.18;76.35;100740.78;5012610;28;20390;-86
2022/12/30 03:34:24;;;;;;;;;;;;;;;1.33;76.37;100735.31;5011365;28;20007;-86
2022/12/30 03:36:51;;;;;;;;;;;;;;;1.54;75.40;100737.84;5012384;28;19920;-86
2022/12/30 03:39:19;;;;;;;;;;;;;;;1.38;76.20;100741.56;5012075;28;20395;-87
2022/12/30 03:41:46;;;;;;;;;;;;;;;1.46;75.96;100741.88;5012430;28;19920;-86
2022/12/30 03:44:12;;;;;;;;;;;;;;;1.39;76.09;100751.16;5012157;28;19932;-86
2022/12/30 03:46:39;;;;;;;;;;;;;;;1.30;76.45;100740.38;5011958;28;20364;-86
2022/12/30 03:49:05;;;;;;;;;;;;;;;1.21;77.63;100740.91;5012628;28;19965;-86
2022/12/30 03:51:30;;;;;;;;;;;;;;;1.29;77.90;100743.81;5012258;28;19957;-86
2022/12/30 03:53:55;;;;;;;;;;;;;;;0.87;78.98;100747.34;5010874;28;20368;-86
2022/12/30 03:56:21;;;;;;;;;;;;;;;0.82;80.73;100753.16;5010382;28;19913;-86
2022/12/30 03:58:46;;;;;;;;;;;;;;;0.98;80.60;100749.50;5015652;28;19909;-85
2022/12/30 04:01:11;;;;;;;;;;;;;;;0.86;80.96;100752.47;5016259;28;19917;-86
2022/12/30 04:03:37;;;;;;;;;;;;;;;1.25;80.01;100749.69;5015418;28;19920;-86
2022/12/30 04:06:02;;;;;;;;;;;;;;;1.05;79.00;100757.59;5015844;28;19920;-86
2022/12/30 04:08:27;;;;;;;;;;;;;;;1.20;78.93;100761.63;5015190;28;20478;-85
2022/12/30 04:10:52;;;;;;;;;;;;;;;1.27;78.25;100758.47;5015793;28;20382;-85
2022/12/30 04:13:18;;;;;;;;;;;;;;;1.20;77.49;100759.91;5015106;28;19971;-88
2022/12/30 04:15:48;;;;;;;;;;;;;;;1.18;77.29;100753.78;5015463;28;19920;-87
2022/12/30 04:18:13;;;;;;;;;;;;;;;1.37;77.03;100750.19;5015502;28;19914;-86
2022/12/30 04:20:39;;;;;;;;;;;;;;;1.22;77.00;100758.28;4997392;28;19979;-87
2022/12/30 04:23:04;;;;;;;;;;;;;;;1.27;77.58;100758.47;5015219;28;19913;-86
2022/12/30 04:25:29;;;;;;;;;;;;;;;0.89;77.32;100761.28;5015476;28;19913;-86
2022/12/30 04:30:57;;;;;;;;;;;;;;;0.99;78.42;100762.56;5015005;28;19925;-86
2022/12/30 04:36:25;;;;;;;;;;;;;;;0.89;79.08;100752.59;5015063;28;19916;-87
2022/12/30 04:38:51;;;;;;;;;;;;;;;1.07;78.49;100755.94;5015329;28;19914;-88
2022/12/30 04:41:19;;;;;;;;;;;;;;;1.15;78.40;100755.38;5014828;28;19913;-88
2022/12/30 04:43:45;;;;;;;;;;;;;;;1.10;78.77;100754.28;5015082;28;20364;-87
2022/12/30 04:46:10;;;;;;;;;;;;;;;1.09;78.62;100763.81;5013459;28;19968;-89
2022/12/30 04:48:36;;;;;;;;;;;;;;;1.25;77.65;100752.31;5014991;28;19913;-89
2022/12/30 04:54:03;;;;;;;;;;;;;;;1.10;78.17;100756.88;5014677;28;19920;-90
2022/12/30 04:56:29;;;;;;;;;;;;;;;1.16;78.28;100758.03;5014884;28;20336;-88
2022/12/30 04:58:55;;;;;;;;;;;;;;;1.14;78.25;100767.47;5013196;28;19920;-88
2022/12/30 05:01:21;;;;;;;;;;;;;;;1.07;77.83;100771.53;5014717;28;19917;-87
2022/12/30 05:03:46;;;;;;;;;;;;;;;1.06;78.14;100763.69;5014690;28;19914;-88
2022/12/30 05:06:11;;;;;;;;;;;;;;;1.05;78.12;100760.22;5014202;28;20008;-88
2022/12/30 05:08:36;;;;;;;;;;;;;;;1.00;77.28;100766.03;5014458;28;19913;-89
2022/12/30 05:11:02;;;;;;;;;;;;;;;1.05;77.69;100760.22;5012936;28;19917;-86
2022/12/30 05:13:27;;;;;;;;;;;;;;;0.98;77.71;100765.09;5012538;28;19914;-90
2022/12/30 05:15:52;;;;;;;;;;;;;;;0.97;77.93;100769.38;5012783;28;20284;-86
2022/12/30 05:18:18;;;;;;;;;;;;;;;1.11;77.47;100775.16;5013681;28;19913;-88
2022/12/30 05:20:43;;;;;;;;;;;;;;;1.13;77.35;100770.91;5014363;28;20425;-87
2022/12/30 05:26:13;;;;;;;;;;;;;;;0.93;77.29;100772.69;5014211;28;19913;-86
2022/12/30 05:28:37;;;;;;;;;;;;;;;1.05;77.55;100772.28;5013525;28;19963;-86
2022/12/30 05:31:03;;;;;;;;;;;;;;;1.11;77.25;100782.06;5013803;28;20331;-87
2022/12/30 05:33:28;;;;;;;;;;;;;;;0.92;76.96;100778.72;5013679;28;19914;-91
2022/12/30 05:35:53;;;;;;;;;;;;;;;0.99;77.42;100782.44;5013996;28;20004;-87
2022/12/30 05:38:18;;;;;;;;;;;;;;;0.97;77.20;100787.56;5013549;28;19936;-90
2022/12/30 05:40:44;;;;;;;;;;;;;;;0.91;77.26;100789.91;5013707;28;20291;-89
2022/12/30 05:43:09;;;;;;;;;;;;;;;0.93;77.18;100787.38;4996167;28;20372;-89
2022/12/30 05:45:34;;;;;;;;;;;;;;;0.98;77.50;100789.34;5013983;28;20012;-89
2022/12/30 05:48:00;;;;;;;;;;;;;;;0.99;77.71;100788.53;5013912;28;19914;-88
2022/12/30 05:50:25;;;;;;;;;;;;;;;1.14;77.65;100787.38;5013489;28;19917;-88
2022/12/30 05:52:50;;;;;;;;;;;;;;;1.32;77.38;100789.84;5013793;28;20007;-88
2022/12/30 05:55:15;;;;;;;;;;;;;;;1.33;76.35;100797.72;5013849;28;19914;-88
2022/12/30 05:57:41;;;;;;;;;;;;;;;1.34;76.22;100793.38;5013301;28;20004;-88
2022/12/30 06:00:06;;;;;;;;;;;;;;;1.29;77.12;100794.94;5013254;28;19917;-88
2022/12/30 06:02:33;;;;;;;;;;;;;;;1.04;77.71;100796.53;5013478;28;20403;-90
2022/12/30 06:04:58;;;;;;;;;;;;;;;1.27;77.63;100805.25;5013176;28;19918;-90
2022/12/30 06:07:23;;;;;;;;;;;;;;;1.42;77.42;100800.69;5013711;28;19921;-89
2022/12/30 06:09:49;;;;;;;;;;;;;;;1.52;76.46;100796.72;5013196;28;19976;-90
2022/12/30 06:12:14;;;;;;;;;;;;;;;1.45;76.62;100799.88;4995548;28;19963;-88
2022/12/30 06:14:39;;;;;;;;;;;;;;;1.30;76.88;100799.28;5013578;28;20012;-89
2022/12/30 06:17:06;;;;;;;;;;;;;;;1.49;76.36;100799.19;5013491;28;19913;-88
2022/12/30 06:19:31;;;;;;;;;;;;;;;1.38;76.87;100798.78;5013091;28;19914;-95
2022/12/30 06:21:56;;;;;;;;;;;;;;;1.35;76.26;100801.25;5012367;28;20343;-88
2022/12/30 06:24:22;;;;;;;;;;;;;;;1.44;76.68;100800.75;5013349;28;20394;-89
2022/12/30 06:26:47;;;;;;;;;;;;;;;1.53;76.17;100801.09;5011629;28;19913;-90
2022/12/30 06:29:12;;;;;;;;;;;;;;;1.45;76.21;100804.22;5012987;28;19959;-88
2022/12/30 06:31:38;;;;;;;;;;;;;;;1.48;76.39;100804.34;5013077;28;19917;-89
2022/12/30 06:34:03;;;;;;;;;;;;;;;1.51;75.70;100807.94;5012990;28;19979;-89
2022/12/30 06:36:28;;;;;;;;;;;;;;;1.48;76.03;100814.75;5013968;28;19916;-87
2022/12/30 06:38:53;;;;;;;;;;;;;;;1.55;75.60;100809.84;5012706;28;19913;-90
2022/12/30 06:41:19;;;;;;;;;;;;;;;1.71;75.20;100815.63;5013385;28;19913;-90
2022/12/30 06:43:44;;;;;;;;;;;;;;;1.66;75.25;100817.19;5013149;28;19909;-93
2022/12/30 06:46:09;;;;;;;;;;;;;;;1.71;75.32;100832.13;4998312;28;19980;-96
2022/12/30 06:48:36;;;;;;;;;;;;;;;1.85;75.62;100826.56;5001284;28;19966;-94
2022/12/30 06:54:11;;;;;;;;;;;;;;;1.88;75.99;100832.78;5133009;23;20024;-96
2022/12/30 06:56:37;;;;;;;;;;;;;;;1.86;75.71;100837.03;5018067;28;20008;-94
2022/12/30 06:59:02;;;;;;;;;;;;;;;1.21;79.50;100838.81;5017050;28;20383;-93
2022/12/30 07:01:28;;;;;;;;;;;;;;;1.47;79.72;100837.25;5015892;28;19917;-94
2022/12/30 07:03:53;;;;;;;;;;;;;;;1.89;79.47;100839.78;5016432;28;20284;-94
2022/12/30 07:06:18;;;;;;;;;;;;;;;1.80;78.89;100836.81;5033766;28;19913;-95
2022/12/30 07:11:46;;;;;;;;;;;;;;;2.39;78.95;100846.81;5039195;28;19920;-96
2022/12/30 07:14:12;;;;;;;;;;;;;;;2.57;77.89;100841.41;5023214;28;19953;-89
2022/12/30 07:16:37;;;;;;;;;;;;;;;2.67;77.56;100841.78;5034804;28;19924;-92
2022/12/30 07:19:02;;;;;;;;;;;;;;;2.73;78.29;100843.69;5018881;28;19953;-94
2022/12/30 07:21:28;;;;;;;;;;;;;;;2.89;78.19;100852.94;5015609;28;19917;-96
2022/12/30 07:23:53;;;;;;;;;;;;;;;2.96;78.79;100854.91;5018039;28;19919;-96
2022/12/30 07:26:19;;;;;;;;;;;;;;;3.03;78.47;100854.31;5072825;23;19942;-94
2022/12/30 07:28:45;;;;;;;;;;;;;;;3.10;78.14;100846.69;4982171;28;19922;-96
2022/12/30 07:31:12;;;;;;;;;;;;;;;3.33;78.46;100845.72;5119303;23;19936;-93
2022/12/30 07:33:37;;;;;;;;;;;;;;;3.63;77.71;100844.03;5049271;28;19913;-93
2022/12/30 07:36:04;;;;;;;;;;;;;;;3.54;77.31;100847.28;5043382;28;19913;-94
2022/12/30 07:38:29;;;;;;;;;;;;;;;3.55;77.88;100855.16;5037419;28;19979;-93
2022/12/30 07:41:00;;;;;;;;;;;;;;;3.31;78.53;100850.00;5038861;28;19948;-95
2022/12/30 07:43:26;;;;;;;;;;;;;;;3.55;79.40;100851.63;5048193;28;19907;-89
2022/12/30 07:45:52;;;;;;;;;;;;;;;3.74;78.90;100850.50;5041233;28;19913;-95
2022/12/30 07:48:17;;;;;;;;;;;;;;;3.97;77.47;100848.59;5025370;28;19960;-95
2022/12/30 07:50:43;;;;;;;;;;;;;;;3.56;79.05;100854.28;5036663;28;19913;-94
2022/12/30 07:53:08;;;;;;;;;;;;;;;3.82;79.96;100849.00;5037390;28;20003;-94
2022/12/30 07:55:37;;;;;;;;;;;;;;;4.38;78.17;100843.69;5034761;28;20294;-93
2022/12/30 07:58:02;;;;;;;;;;;;;;;4.43;76.54;100856.88;5038671;28;20012;-93
2022/12/30 08:00:27;;;;;;;;;;;;;;;4.53;75.72;100860.66;5035243;28;20000;-95
2022/12/30 08:02:53;;;;;;;;;;;;;;;4.63;76.97;100853.13;5036418;28;19972;-88
2022/12/30 08:05:21;;;;;;;;;;;;;;;4.90;75.92;100862.56;5037259;28;20299;-94
2022/12/30 08:07:47;;;;;;;;;;;;;;;4.74;75.06;100865.59;5035817;28;19913;-95
2022/12/30 08:10:13;;;;;;;;;;;;;;;4.77;75.88;100860.44;5021194;28;19917;-95
2022/12/30 08:12:38;;;;;;;;;;;;;;;4.82;75.39;100858.84;5036674;28;19913;-96
2022/12/30 08:15:04;;;;;;;;;;;;;;;4.98;76.80;100857.53;5034688;28;20282;-91
2022/12/30 08:17:29;;;;;;;;;;;;;;;5.45;75.74;100859.56;5036645;28;19913;-90
2022/12/30 08:19:56;;;;;;;;;;;;;;;5.41;74.86;100863.84;5038219;28;19920;-96
2022/12/30 08:22:24;;;;;;;;;;;;;;;5.55;74.94;100869.44;5036097;28;20361;-92
2022/12/30 08:24:50;;;;;;;;;;;;;;;5.68;73.71;100866.22;5034649;28;19913;-93
2022/12/30 08:27:16;;;;;;;;;;;;;;;5.66;73.33;100867.94;5039560;28;19913;-94
2022/12/30 08:29:42;;;;;;;;;;;;;;;5.70;75.23;100858.41;5037917;28;19917;-92
2022/12/30 08:32:07;;;;;;;;;;;;;;;5.84;73.98;100857.03;5036114;28;20011;-91
2022/12/30 08:34:32;;;;;;;;;;;;;;;5.99;74.61;100853.00;5033012;28;19913;-91
2022/12/30 08:36:58;;;;;;;;;;;;;;;6.11;73.08;100855.00;5034932;28;19913;-90
2022/12/30 08:39:23;;;;;;;;;;;;;;;6.38;72.36;100854.69;5033984;28;19920;-93
2022/12/30 08:41:48;;;;;;;;;;;;;;;6.35;72.57;100852.91;5035178;28;19917;-90
2022/12/30 08:44:14;;;;;;;;;;;;;;;6.55;72.75;100842.84;5035487;28;20244;-91
2022/12/30 08:46:40;;;;;;;;;;;;;;;6.68;71.95;100849.19;5035774;28;20280;-91
2022/12/30 08:49:06;;;;;;;;;;;;;;;6.74;71.87;100843.19;5033762;28;20411;-91
2022/12/30 08:51:32;;;;;;;;;;;;;;;6.77;72.19;100840.63;5034893;28;19917;-92
2022/12/30 08:53:57;;;;;;;;;;;;;;;6.79;72.28;100829.28;5033355;28;20031;-90
2022/12/30 08:56:24;;;;;;;;;;;;;;;7.15;70.72;100827.28;5035025;28;19916;-89
2022/12/30 08:58:50;;;;;;;;;;;;;;;6.91;71.52;100833.88;5034151;28;19917;-85
2022/12/30 09:01:20;;;;;;;;;;;;;;;7.04;71.92;100823.59;5034516;28;19971;-86
2022/12/30 09:03:46;;;;;;;;;;;;;;;7.21;71.26;100822.16;5034101;28;19909;-86
2022/12/30 09:06:12;;;;;;;;;;;;;;;7.56;71.57;100815.72;5033736;28;19917;-86
2022/12/30 09:08:37;;;;;;;;;;;;;;;7.69;69.39;100807.13;5034123;28;20000;-87
2022/12/30 09:11:02;;;;;;;;;;;;;;;7.81;69.74;100807.31;5033771;28;20074;-87
2022/12/30 09:13:28;;;;;;;;;;;;;;;8.05;69.28;100808.53;5033760;28;19952;-88
2022/12/30 09:15:54;;;;;;;;;;;;;;;7.93;69.16;100805.72;5033927;28;19913;-89
2022/12/30 09:18:20;;;;;;;;;;;;;;;7.94;69.92;100807.47;5033033;28;19921;-86
2022/12/30 09:20:45;;;;;;;;;;;;;;;7.95;69.74;100801.38;5033790;28;19913;-86
2022/12/30 09:23:10;;;;;;;;;;;;;;;7.95;70.73;100798.75;5033633;28;19962;-86
2022/12/30 09:25:36;;;;;;;;;;;;;;;7.89;70.23;100795.19;5033767;28;19913;-85
2022/12/30 09:28:01;;;;;;;;;;;;;;;8.00;70.72;100794.41;5033902;28;21033;-86
2022/12/30 09:30:26;;;;;;;;;;;;;;;8.15;70.52;100797.25;5033277;28;19917;-86
2022/12/30 09:32:52;;;;;;;;;;;;;;;8.20;70.70;100795.56;5033419;28;19952;-88
2022/12/30 09:35:17;;;;;;;;;;;;;;;8.37;70.71;100797.50;5033772;28;20012;-89
2022/12/30 09:37:43;;;;;;;;;;;;;;;8.40;69.45;100789.66;5033429;28;19909;-87
2022/12/30 09:40:13;;;;;;;;;;;;;;;8.30;69.86;100783.41;5033756;28;19972;-92
2022/12/30 09:45:27;;;;;;;;;;;;;;;8.35;70.39;100778.22;5034674;28;19920;-92
2022/12/30 09:47:56;;;;;;;;;;;;;;;8.46;70.02;100773.09;5034295;28;19913;-91
2022/12/30 09:50:30;;;;;;;;;;;;;;;8.66;70.85;100776.81;5033339;28;19957;-91
2022/12/30 09:52:56;;;;;;;;;;;;;;;8.62;70.18;100763.63;5034022;28;19913;-89
2022/12/30 09:55:30;;;;;;;;;;;;;;;8.57;70.02;100761.84;5037493;28;20287;-90
2022/12/30 09:57:58;;;;;;;;;;;;;;;8.89;68.82;100755.97;5050780;28;19932;-91
2022/12/30 10:00:24;;;;;;;;;;;;;;;9.05;68.77;100745.59;5039698;28;19984;-93
2022/12/30 10:02:50;;;;;;;;;;;;;;;9.21;67.54;100743.97;5032865;28;19988;-92
2022/12/30 10:05:31;;;;;;;;;;;;;;;9.17;67.47;100735.16;5031990;28;19912;-92
2022/12/30 10:08:06;;;;;;;;;;;;;;;9.06;68.99;100729.81;5032818;28;20375;-94
2022/12/30 10:10:38;;;;;;;;;;;;;;;9.19;68.58;100724.63;5030272;28;20457;-93
2022/12/30 10:13:27;;;;;;;;;;;;;;;9.41;67.77;100728.31;5032015;28;19924;-93
2022/12/30 10:16:02;;;;;;;;;;;;;;;9.55;66.69;100728.41;5034155;28;19960;-93
2022/12/30 10:18:39;;;;;;;;;;;;;;;9.63;66.01;100721.41;5032600;28;20019;-93
2022/12/30 10:21:25;;;;;;;;;;;;;;;9.62;66.86;100717.91;5033816;28;19913;-94
2022/12/30 10:24:09;;;;;;;;;;;;;;;9.62;66.75;100711.72;5032221;28;19935;-93
2022/12/30 10:26:48;;;;;;;;;;;;;;;9.73;65.85;100706.50;5033218;28;19920;-91
2022/12/30 10:29:16;;;;;;;;;;;;;;;9.76;65.46;100706.53;5034153;28;20067;-91
2022/12/30 10:31:43;;;;;;;;;;;;;;;9.63;63.92;100706.47;5033501;28;19924;-91
2022/12/30 10:34:21;;;;;;;;;;;;;;;9.77;64.08;100697.75;5032352;28;19920;-90
2022/12/30 10:36:59;;;;;;;;;;;;;;;9.94;64.29;100695.19;5033572;28;20380;-93
2022/12/30 10:39:56;;;;;;;;;;;;;;;10.07;64.07;100693.47;5031669;28;19998;-86
2022/12/30 10:42:28;;;;;;;;;;;;;;;10.11;64.77;100693.47;5000558;28;19913;-91
2022/12/30 10:45:04;;;;;;;;;;;;;;;10.21;63.98;100683.84;5032257;28;19913;-91
2022/12/30 10:47:33;;;;;;;;;;;;;;;10.21;63.72;100679.47;5033627;28;20303;-92
2022/12/30 10:49:58;;;;;;;;;;;;;;;10.23;63.69;100681.22;5031236;28;20015;-92
2022/12/30 10:52:24;;;;;;;;;;;;;;;10.34;63.24;100675.09;5031122;28;20000;-94
2022/12/30 10:54:50;;;;;;;;;;;;;;;10.22;64.06;100667.13;5032709;28;19920;-93
2022/12/30 10:57:17;;;;;;;;;;;;;;;10.47;62.65;100668.09;5031282;28;20411;-91
2022/12/30 10:59:43;;;;;;;;;;;;;;;10.65;62.49;100659.31;5031197;28;20307;-92
2022/12/30 11:02:16;;;;;;;;;;;;;;;10.70;63.13;100667.22;5031893;28;19913;-93
2022/12/30 11:04:42;;;;;;;;;;;;;;;10.61;63.16;100654.03;5032595;28;20367;-92
2022/12/30 11:07:09;;;;;;;;;;;;;;;10.69;62.63;100655.78;5034536;28;19924;-96
2022/12/30 11:09:36;;;;;;;;;;;;;;;10.89;62.07;100652.25;5035704;28;19936;-94
2022/12/30 11:15:01;;;;;;;;;;;;;;;10.84;62.00;100646.09;5028575;28;19963;-93
2022/12/30 11:17:28;;;;;;;;;;;;;;;10.89;61.78;100644.31;5036731;28;20351;-96
2022/12/30 11:19:55;;;;;;;;;;;;;;;10.98;61.66;100640.81;5035706;28;20008;-94
2022/12/30 11:22:21;;;;;;;;;;;;;;;11.00;61.38;100639.94;5035584;28;19912;-94
2022/12/30 11:24:58;;;;;;;;;;;;;;;11.19;61.14;100632.84;5035659;28;19921;-96
2022/12/30 11:27:32;;;;;;;;;;;;;;;11.31;60.93;100631.03;5036148;28;19909;-96
2022/12/30 11:29:57;;;;;;;;;;;;;;;11.38;60.58;100628.38;5035908;28;19913;-94
2022/12/30 11:32:23;;;;;;;;;;;;;;;11.38;61.30;100633.66;5035028;28;19913;-94
2022/12/30 11:34:48;;;;;;;;;;;;;;;11.32;61.11;100630.16;5034668;28;19917;-95
2022/12/30 11:37:49;;;;;;;;;;;;;;;11.31;61.16;100621.38;5035582;28;20260;-95
2022/12/30 11:40:24;;;;;;;;;;;;;;;11.50;61.17;100624.81;4975615;28;19915;-95
2022/12/30 11:43:03;;;;;;;;;;;;;;;11.52;60.94;100620.38;5023310;28;19917;-94
2022/12/30 11:45:28;;;;;;;;;;;;;;;11.57;60.70;100620.38;5035131;28;19921;-94
2022/12/30 11:47:53;;;;;;;;;;;;;;;11.76;59.99;100623.81;5018971;28;20375;-92
2022/12/30 11:50:19;;;;;;;;;;;;;;;11.75;59.90;100611.50;5034453;28;19913;-94
2022/12/30 11:52:53;;;;;;;;;;;;;;;11.79;59.97;100615.88;5034954;28;19913;-94
2022/12/30 11:55:21;;;;;;;;;;;;;;;11.79;60.24;100613.25;5035049;28;20444;-93
2022/12/30 11:57:47;;;;;;;;;;;;;;;11.78;60.54;100614.13;5034436;28;19913;-93
2022/12/30 12:00:12;;;;;;;;;;;;;;;11.69;60.38;100612.38;5035977;28;19913;-93
2022/12/30 12:02:40;;;;;;;;;;;;;;;11.83;59.89;100609.66;5034322;28;19920;-95
2022/12/30 12:05:25;;;;;;;;;;;;;;;11.98;59.60;100612.25;5034464;28;19930;-94
2022/12/30 12:07:53;;;;;;;;;;;;;;;11.88;59.82;100607.00;5035299;28;20355;-93
2022/12/30 12:10:28;;;;;;;;;;;;;;;11.80;59.95;100605.31;5034594;28;19913;-92
2022/12/30 12:12:55;;;;;;;;;;;;;;;11.97;60.05;100606.97;5033992;28;19922;-93
2022/12/30 12:15:27;;;;;;;;;;;;;;;12.06;59.40;100592.84;5034529;28;20375;-93
2022/12/30 12:17:57;;;;;;;;;;;;;;;12.03;59.93;100591.06;5034565;28;19912;-93
2022/12/30 12:20:41;;;;;;;;;;;;;;;12.13;59.41;100584.84;5032660;28;19920;-93
2022/12/30 12:23:07;;;;;;;;;;;;;;;11.89;60.48;100587.63;5035599;28;19920;-93
2022/12/30 12:25:35;;;;;;;;;;;;;;;12.21;59.99;100581.28;5035684;28;19909;-94
2022/12/30 12:28:01;;;;;;;;;;;;;;;12.21;59.39;100576.84;5035922;28;19921;-94
2022/12/30 12:30:49;;;;;;;;;;;;;;;12.22;60.07;100578.63;5035326;28;19923;-92
2022/12/30 12:33:24;;;;;;;;;;;;;;;12.22;60.72;100583.00;5033835;28;19971;-92
2022/12/30 12:35:59;;;;;;;;;;;;;;;12.29;59.33;100572.38;5034583;28;19913;-93
2022/12/30 12:38:35;;;;;;;;;;;;;;;12.43;59.07;100574.03;5034610;28;20009;-90
2022/12/30 12:41:09;;;;;;;;;;;;;;;12.47;59.91;100571.34;5034453;28;20012;-91
2022/12/30 12:43:34;;;;;;;;;;;;;;;12.36;59.82;100573.22;5034779;28;19913;-91
2022/12/30 12:46:02;;;;;;;;;;;;;;;12.45;59.88;100566.94;5033106;28;20004;-92
2022/12/30 12:48:41;;;;;;;;;;;;;;;12.40;59.34;100571.41;5033356;28;19935;-93
2022/12/30 12:51:12;;;;;;;;;;;;;;;12.59;59.14;100569.47;5032928;28;19913;-92
2022/12/30 12:53:38;;;;;;;;;;;;;;;12.59;59.67;100558.88;5034839;28;19913;-90
2022/12/30 12:56:12;;;;;;;;;;;;;;;12.58;59.53;100559.78;5033989;28;19913;-90
2022/12/30 12:58:54;;;;;;;;;;;;;;;12.61;59.57;100567.72;5034319;28;19913;-90
2022/12/30 13:01:20;;;;;;;;;;;;;;;12.63;59.46;100569.44;5034482;28;19946;-90
2022/12/30 13:04:07;;;;;;;;;;;;;;;12.86;58.88;100563.91;5034696;28;19913;-94
2022/12/30 13:06:48;;;;;;;;;;;;;;;12.93;57.02;100570.03;5033073;28;20010;-95
2022/12/30 13:09:13;;;;;;;;;;;;;;;12.95;57.29;100573.53;5033987;28;19913;-93
2022/12/30 13:11:54;;;;;;;;;;;;;;;12.88;58.65;100569.19;5036096;28;19913;-95
2022/12/30 13:14:34;;;;;;;;;;;;;;;13.05;57.67;100575.19;5036252;28;19913;-92
2022/12/30 13:17:03;;;;;;;;;;;;;;;13.06;56.09;100576.94;5055142;28;19901;-95
2022/12/30 13:19:34;;;;;;;;;;;;;;;13.01;57.23;100577.91;5052094;28;20015;-94
2022/12/30 13:22:03;;;;;;;;;;;;;;;13.15;56.73;100580.38;5035000;28;19931;-93
2022/12/30 13:24:31;;;;;;;;;;;;;;;13.27;56.42;100574.94;5033538;28;19917;-94
2022/12/30 13:26:58;;;;;;;;;;;;;;;13.06;56.96;100576.06;5033413;28;19909;-96
2022/12/30 13:29:28;;;;;;;;;;;;;;;13.11;56.94;100568.06;5034259;28;19913;-93
2022/12/30 13:32:09;;;;;;;;;;;;;;;13.18;56.96;100575.06;5032270;28;19923;-89
2022/12/30 13:34:47;;;;;;;;;;;;;;;13.15;56.34;100578.59;5031415;28;20276;-91
2022/12/30 13:37:18;;;;;;;;;;;;;;;13.29;56.28;100580.22;5032356;28;20004;-90
2022/12/30 13:40:14;;;;;;;;;;;;;;;13.40;55.57;100576.56;5033310;28;19956;-90
2022/12/30 13:42:58;;;;;;;;;;;;;;;13.40;55.57;100581.84;5021360;28;19913;-89
2022/12/30 13:45:35;;;;;;;;;;;;;;;13.31;55.47;100587.25;5033536;28;19913;-92
2022/12/30 13:48:06;;;;;;;;;;;;;;;13.15;57.02;100588.34;5033412;28;19968;-92
2022/12/30 13:50:33;;;;;;;;;;;;;;;13.25;56.78;100587.31;5032316;28;19972;-92
2022/12/30 13:52:59;;;;;;;;;;;;;;;13.38;56.50;100588.97;5032466;28;19920;-94
2022/12/30 13:55:36;;;;;;;;;;;;;;;13.33;57.05;100589.88;5032984;28;19920;-95
2022/12/30 13:58:05;;;;;;;;;;;;;;;13.28;57.49;100597.88;5032690;28;19916;-95
2022/12/30 14:00:41;;;;;;;;;;;;;;;13.31;56.99;100597.84;5032855;28;19913;-96
2022/12/30 14:03:09;;;;;;;;;;;;;;;13.13;57.88;100595.41;5034177;28;19971;-95
2022/12/30 14:06:01;;;;;;;;;;;;;;;13.14;58.03;100605.97;5034168;28;20363;-92
2022/12/30 14:08:26;;;;;;;;;;;;;;;13.03;58.62;100607.88;5030833;28;19996;-93
2022/12/30 14:10:53;;;;;;;;;;;;;;;13.00;58.52;100608.78;5032090;28;20435;-93
2022/12/30 14:13:25;;;;;;;;;;;;;;;12.80;58.92;100603.69;5033120;28;20290;-92
2022/12/30 14:15:50;;;;;;;;;;;;;;;12.81;58.83;100600.16;5031904;28;20442;-94
2022/12/30 14:18:18;;;;;;;;;;;;;;;12.53;60.06;100604.84;5032555;28;20008;-94
2022/12/30 14:20:56;;;;;;;;;;;;;;;12.70;59.17;100607.31;5031528;28;19971;-94
2022/12/30 14:23:33;;;;;;;;;;;;;;;12.78;59.19;100605.47;5032163;28;19967;-94